Time;durP1;ratioP1;P1;durP2;ratioP2;P2;SDS_P1;SDS_P2;PMS_P1;PMS_P2;Temp;Humidity;BMP_temperature;BMP_pressure;BME280_temperature;BME280_humidity;BME280_pressure;Samples;Min_cycle;Max_cycle;Signal;HPM_P1;HPM_P2
2022/11/25 00:04:38;;;;;;;;;19.00;17.25;;;;;;;;6488706;46;9134;-58
2022/11/25 00:10:41;;;;;;;;;23.00;21.50;;;;;;;;6488924;46;9095;-58
2022/11/25 00:16:43;;;;;;;;;23.00;23.00;;;;;;;;6488413;46;8912;-59
2022/11/25 00:22:50;;;;;;;;;24.75;24.25;;;;;;;;6488596;39;8908;-59
2022/11/25 00:28:53;;;;;;;;;35.00;26.50;;;;;;;;6488605;47;8869;-59
2022/11/25 00:34:57;;;;;;;;;31.00;27.25;;;;;;;;6490789;39;9574;-59
2022/11/25 00:47:21;;;;;;;;;32.25;28.25;;;;;;;;6489789;31;8893;-59
2022/11/25 00:53:26;;;;;;;;;37.75;34.00;;;;;;;;6490245;31;8869;-58
2022/11/25 00:59:28;;;;;;;;;41.25;34.75;;;;;;;;6491022;31;8889;-59
2022/11/25 01:05:33;;;;;;;;;38.50;34.50;;;;;;;;6489702;39;8925;-57
2022/11/25 01:11:36;;;;;;;;;41.00;39.25;;;;;;;;6490707;39;9543;-59
2022/11/25 01:17:38;;;;;;;;;51.75;45.00;;;;;;;;6489352;39;8893;-58
2022/11/25 01:23:42;;;;;;;;;56.00;46.25;;;;;;;;6489750;39;8879;-59
2022/11/25 01:29:47;;;;;;;;;61.50;48.50;;;;;;;;6490290;39;8890;-59
2022/11/25 01:35:49;;;;;;;;;61.25;49.00;;;;;;;;6489151;31;8982;-59
2022/11/25 01:41:52;;;;;;;;;53.50;45.00;;;;;;;;6490434;31;9602;-58
2022/11/25 01:48:01;;;;;;;;;61.33;47.67;;;;;;;;6489602;39;8852;-59
2022/11/25 01:54:05;;;;;;;;;49.75;42.00;;;;;;;;6490134;39;8909;-58
2022/11/25 02:00:09;;;;;;;;;55.50;44.50;;;;;;;;6488711;46;9015;-59
2022/11/25 02:06:33;;;;;;;;;53.00;44.50;;;;;;;;6490280;31;8883;-58
2022/11/25 02:12:40;;;;;;;;;51.25;42.25;;;;;;;;6490233;39;9572;-59
2022/11/25 02:18:42;;;;;;;;;59.25;45.75;;;;;;;;6489814;31;9612;-59
2022/11/25 02:24:46;;;;;;;;;52.25;44.00;;;;;;;;6488879;39;8837;-58
2022/11/25 02:30:49;;;;;;;;;56.75;46.00;;;;;;;;6489264;39;8901;-59
2022/11/25 02:36:52;;;;;;;;;52.25;46.25;;;;;;;;6489102;39;9331;-58
2022/11/25 02:42:59;;;;;;;;;51.00;44.25;;;;;;;;6489871;39;8966;-58
2022/11/25 02:49:02;;;;;;;;;50.75;40.00;;;;;;;;6489803;39;8857;-59
2022/11/25 02:55:14;;;;;;;;;48.00;42.50;;;;;;;;6489570;31;8996;-58
2022/11/25 03:01:17;;;;;;;;;53.75;41.75;;;;;;;;6489300;31;8929;-60
2022/11/25 03:07:19;;;;;;;;;47.50;41.00;;;;;;;;6488464;39;8852;-58
2022/11/25 03:13:24;;;;;;;;;42.75;40.50;;;;;;;;6489152;46;8948;-58
2022/11/25 03:19:26;;;;;;;;;43.75;42.50;;;;;;;;6490042;39;8880;-57
2022/11/25 03:25:28;;;;;;;;;46.75;40.50;;;;;;;;6489588;39;8940;-59
2022/11/25 03:31:32;;;;;;;;;41.50;40.75;;;;;;;;6489251;39;8879;-58
2022/11/25 03:37:36;;;;;;;;;44.50;38.25;;;;;;;;6489176;39;8886;-58
2022/11/25 03:43:41;;;;;;;;;50.50;41.75;;;;;;;;6488250;46;8863;-59
2022/11/25 03:49:44;;;;;;;;;41.00;38.50;;;;;;;;6488605;46;8901;-61
2022/11/25 03:55:47;;;;;;;;;57.75;44.75;;;;;;;;6489524;39;8973;-58
2022/11/25 04:01:52;;;;;;;;;46.00;43.25;;;;;;;;6489515;46;8952;-59
2022/11/25 04:07:57;;;;;;;;;39.00;35.50;;;;;;;;6488159;39;8919;-60
2022/11/25 04:14:00;;;;;;;;;50.25;42.50;;;;;;;;6488767;39;9087;-58
2022/11/25 04:20:03;;;;;;;;;37.25;37.25;;;;;;;;6488438;46;8845;-58
2022/11/25 04:26:06;;;;;;;;;36.50;30.50;;;;;;;;6487823;47;8877;-58
2022/11/25 04:32:15;;;;;;;;;45.75;41.00;;;;;;;;6488203;47;9039;-60
2022/11/25 04:38:19;;;;;;;;;39.75;35.00;;;;;;;;6488909;39;8901;-58
2022/11/25 04:44:22;;;;;;;;;43.00;39.50;;;;;;;;6488221;39;8901;-59
2022/11/25 04:50:26;;;;;;;;;48.50;42.75;;;;;;;;6488231;39;8956;-59
2022/11/25 04:56:41;;;;;;;;;43.75;38.50;;;;;;;;6487155;47;8873;-60
2022/11/25 05:02:44;;;;;;;;;49.50;46.25;;;;;;;;6461268;47;9104;-58
2022/11/25 05:08:53;;;;;;;;;44.50;41.00;;;;;;;;6489432;39;8893;-59
2022/11/25 05:14:57;;;;;;;;;43.25;38.25;;;;;;;;6490250;39;8905;-59
2022/11/25 05:21:02;;;;;;;;;46.75;39.00;;;;;;;;6490353;39;8899;-58
